Terminal Aerodrome Forecast
Issued by NWS

Home | Current Version | Previous Version | Graphics & Text | Print | Product List | Glossary Off
Versions: 1 2 3 4 5 6 7 8 9 10 11 12 13 14 15 16 17 18 19 20 21 22 23 24 25 26 27

000
FTUS43 KABR 011737 CCA
TAFATY
TAF COR
KATY 011737Z 0118/0218 32019G25KT P6SM BKN019 BKN100
     FM012200 32014KT P6SM BKN015
     FM020000 31011KT P6SM BKN050
     FM020700 13005KT P6SM OVC070
     FM020900 07005KT 2SM BR OVC040
     FM021200 35008KT 3SM BR BKN015
     FM021300 35009KT P6SM BKN015
     FM021500 35012KT 3SM BR BKN020
     FM021700 35012KT P6SM BKN020=

USA.gov is the U.S. government's official web portal to all federal, state and local government web resources and services.